Farmville, VA

6:01 PM EDT on August 31, 2015 (GMT -0400)
Hampden-Sydney College | | Change Station
CLOSE
Current Station
Personal Weather Station
Location: Hampden-Sydney, VA
Elevation: 510 ft
Nearby Weather Stations

Elev 510 ft 37.24 °N, 78.46 °W | Updated 29 seconds ago

Overcast
Overcast
80.3 °F
Feels Like 85 °F
N
0.0
Wind Variable Wind from SSW
Gusts 0.0 mph

Today
High -- | Low -- °F
--% Chance of Precip.
Yesterday
High -- | Low -- °F
Precip. -- in
6:43 AM 7:44 PM
Waning Gibbous, 93% visible
Pressure 30.05 in
Visibility 10.0 miles
Clouds Overcast 8000 ft
Heat Index 85 °F
Dew Point 75 °F
Humidity 84%
Rainfall 0.00 in
Snow Depth Not available.
UV 0.7 out of 12
Pollen 8.40 out of 12
Air Quality Not available.
Flu Activity Not available.
METAR KFVX 312135Z AUTO 16004KT 10SM OVC080 29/19 A3005 RMK AO2 LTG DSNT S T02930191
Pressure 30.05 in
Visibility 10.0 miles
Clouds Overcast 8000 ft
Heat Index 85 °F
Dew Point 75 °F
Humidity 84%
Rainfall 0.00 in
Snow Depth Not available.
UV 0.7 out of 12
Pollen 8.40 out of 12
Air Quality Not available.
Flu Activity Not available.
METAR KFVX 312135Z AUTO 16004KT 10SM OVC080 29/19 A3005 RMK AO2 LTG DSNT S T02930191

10-Day Weather Forecast

×

Almanac

Astronomy

Aug. 31, 2015 Rise Set
Actual Time
Civil Twilight
Nautical Twilight
Astronomical Twilight
Moon
Length of Visible Light
Length of Day
Tomorrow will be .
, % of the Moon is Illuminated

Today's Extremes

State Highs State Lows

Community

WunderPhotos

Upload Photos

1,851,389 photos uploaded!

WunderBlogs® & News

Nearby

Air Quality

  Air Quality AQ Index Pollutant
Not available.

Snow Depth

Station Depth Elevation

Earthquake Activity

City Distance Mag. Time & Date
Minimum magnitude displayed is 2.5.

Coastal Water Temperatures

Place Temperature

Stations

Nearby Weather Stations

Station Location Temp. Windchill Dew Point Humidity Wind Precip. Elev Updated Type